Eagle Springs, North Carolina
Current Conditions -  °F | °C
As of 8:15 PM on Tuesday 27 Jan 2015 (Local Time) from KSOP Reporting Station
Clear Clear  
Wind Chill: 32°   Ceiling: Unl
Heat Index: 36°   Visibility: 10mi
Dew Point: 10°   Wind: 5mph
Humidity: 35%   Direction: 310°NW
Pressure: 29.92"   Gusts: NA
Location:  35.29°N, 79.65°W
Report Text: KSOP 280115Z AUTO 31004KT 10SM CLR 02/M12 A2992 RMK AO1
Loading
Personal Weather Stations






























Interactive Weather Map New forecast layout! Learn more

10-Day Weather Forecast

Advertisements
Track Severe Weather on mobile